createdAt,value
2019-04-05T00:02:56.995Z,77160.22
2019-04-05T00:08:08.895Z,77169.21
2019-04-05T00:18:54.571Z,77166.22
2019-04-05T00:24:07.270Z,77171.20
2019-04-05T00:29:38.914Z,77192.17
2019-04-05T00:34:49.472Z,77192.17
2019-04-05T00:40:04.898Z,77193.17
2019-04-05T00:45:27.910Z,77196.17
2019-04-05T00:50:38.083Z,77201.16
2019-04-05T00:55:44.192Z,77205.16
2019-04-05T01:00:52.113Z,77193.17
2019-04-05T01:06:04.268Z,77198.17
2019-04-05T01:11:15.863Z,77192.17
2019-04-05T01:16:23.907Z,77196.17
2019-04-05T01:21:40.998Z,77204.16
2019-04-05T01:27:14.090Z,77215.14
2019-04-05T01:32:23.422Z,77218.14
2019-04-05T01:37:39.476Z,77207.16
2019-04-05T01:43:18.688Z,77205.16
2019-04-05T01:48:30.016Z,77221.13
2019-04-05T01:53:37.925Z,77225.13
2019-04-05T01:59:00.463Z,77230.13
2019-04-05T02:04:17.367Z,77227.13
2019-04-05T02:09:25.921Z,77230.13
2019-04-05T02:14:53.541Z,77231.12
2019-04-05T02:20:04.263Z,77244.09
2019-04-05T02:25:18.247Z,77256.08
2019-04-05T02:30:32.438Z,77259.08
2019-04-05T02:35:44.490Z,77269.06
2019-04-05T02:41:01.273Z,77290.03
2019-04-05T02:46:23.154Z,77303.02
2019-04-05T02:51:34.649Z,77307.01
2019-04-05T02:56:48.825Z,77306.01
2019-04-05T03:01:59.593Z,77317.99
2019-04-05T03:07:14.443Z,77317.99
2019-04-05T03:12:23.974Z,77333.97
2019-04-05T03:17:32.626Z,77339.95
2019-04-05T03:22:49.094Z,77346.95
2019-04-05T03:28:04.230Z,77350.94
2019-04-05T03:33:16.581Z,77357.93
2019-04-05T03:38:29.382Z,77366.92
2019-04-05T03:44:01.483Z,77385.89
2019-04-05T03:49:17.577Z,77396.88
2019-04-05T03:54:48.652Z,77416.84
2019-04-05T04:00:02.226Z,77430.83
2019-04-05T04:05:19.449Z,77445.80
2019-04-05T04:10:29.014Z,77446.80
2019-04-05T04:15:42.756Z,77431.83
2019-04-05T04:20:58.858Z,77434.82
2019-04-05T04:26:33.284Z,77423.84
2019-04-05T04:31:47.851Z,77419.84
2019-04-05T04:37:00.662Z,77422.84
2019-04-05T04:42:12.279Z,77426.83
2019-04-05T04:47:26.785Z,77434.82
2019-04-05T04:52:36.694Z,77442.81
2019-04-05T04:57:45.091Z,77453.80
2019-04-05T05:02:55.764Z,77475.77
2019-04-05T05:08:07.967Z,77482.75
2019-04-05T05:13:18.288Z,77496.73
2019-04-05T05:18:30.618Z,77504.72
2019-04-05T05:23:47.174Z,77506.72
2019-04-05T05:28:58.687Z,77510.72
2019-04-05T05:34:11.957Z,77515.70
2019-04-05T05:39:25.733Z,77526.69
2019-04-05T05:44:34.657Z,77537.67
2019-04-05T05:49:48.145Z,77540.67
2019-04-05T05:55:05.339Z,77533.68
2019-04-05T06:00:23.080Z,77529.69
2019-04-05T06:05:34.355Z,77526.69
2019-04-05T06:10:45.347Z,77485.75
2019-04-05T06:15:54.467Z,77482.75
2019-04-05T06:21:04.667Z,77481.75
2019-04-05T06:26:14.955Z,77455.79
2019-04-05T06:31:27.812Z,77450.80
2019-04-05T06:37:00.785Z,77433.82
2019-04-05T06:42:10.691Z,77403.87
2019-04-05T06:47:20.782Z,77362.92
2019-04-05T06:52:27.485Z,77342.95
2019-04-05T06:57:40.039Z,77322.98
2019-04-05T07:02:54.535Z,77299.02
2019-04-05T07:08:05.102Z,77280.05
2019-04-05T07:13:17.131Z,77255.08
2019-04-05T07:19:14.953Z,77247.09
2019-04-05T07:24:45.830Z,77233.11
2019-04-05T07:30:29.251Z,77215.14
2019-04-05T07:35:52.970Z,77202.16
2019-04-05T07:41:06.287Z,77173.20
2019-04-05T07:46:16.286Z,77144.25
2019-04-05T07:51:30.872Z,77117.29
2019-04-05T07:56:48.111Z,77106.30
2019-04-05T08:01:56.453Z,77077.34
2019-04-05T08:07:09.570Z,77080.34
2019-04-05T08:12:17.936Z,77051.39
2019-04-05T08:17:29.861Z,77011.45
2019-04-05T08:22:41.059Z,76982.50
2019-04-05T08:27:51.850Z,76973.51
2019-04-05T08:32:59.430Z,76965.52
2019-04-05T08:38:12.887Z,76931.58
2019-04-05T08:43:23.724Z,76931.58
2019-04-05T08:48:38.389Z,76913.60
2019-04-05T08:53:48.661Z,76903.62
2019-04-05T08:58:59.848Z,76857.69
2019-04-05T09:04:18.745Z,76840.72
2019-04-05T09:09:31.146Z,76821.75
2019-04-05T09:14:45.117Z,76771.83
2019-04-05T09:19:59.279Z,76741.88
2019-04-05T09:25:09.857Z,76793.79
2019-04-05T09:30:28.386Z,76739.88
2019-04-05T09:35:41.995Z,76734.89
2019-04-05T09:40:59.072Z,76696.95
2019-04-05T09:46:09.472Z,76666.00
2019-04-05T09:51:21.830Z,76660.00
2019-04-05T09:56:34.807Z,76606.09
2019-04-05T10:01:49.740Z,76596.11
2019-04-05T10:07:05.501Z,76483.30
2019-04-05T10:12:16.097Z,76327.56
2019-04-05T10:17:26.980Z,76313.59
2019-04-05T10:23:08.318Z,76162.84
2019-04-05T10:28:20.811Z,76256.68
2019-04-05T10:33:35.509Z,76057.03
2019-04-05T10:38:51.680Z,76050.05
2019-04-05T10:44:04.925Z,76221.74
2019-04-05T10:49:18.813Z,76150.86
2019-04-05T10:54:29.273Z,75793.51
2019-04-05T10:59:40.882Z,75933.25
2019-04-05T11:04:52.256Z,76016.11
2019-04-05T11:10:05.918Z,76275.65
2019-04-05T11:15:15.746Z,76088.98
2019-04-05T11:20:31.968Z,76062.02
2019-04-05T11:25:43.276Z,75919.28
2019-04-05T11:31:00.452Z,76180.81
2019-04-05T11:36:13.673Z,76124.91
2019-04-05T11:41:42.910Z,76110.94
2019-04-05T11:47:01.351Z,76136.89
2019-04-05T11:52:19.008Z,76211.77
2019-04-05T11:57:32.488Z,76410.42
2019-04-05T12:03:04.145Z,76511.25
2019-04-05T12:08:15.081Z,76422.40
2019-04-05T12:13:30.624Z,76400.44
2019-04-05T12:20:27.499Z,76446.36
2019-04-05T12:24:14.729Z,76360.50
2019-04-05T12:29:35.074Z,76302.60
2019-04-05T12:36:04.081Z,76423.40
2019-04-05T12:40:30.087Z,76405.43
2019-04-05T12:45:45.687Z,76408.42
2019-04-05T12:51:06.293Z,76450.35
2019-04-05T13:07:46.966Z,76383.47
2019-04-05T13:13:11.280Z,76273.66
2019-04-05T13:18:20.790Z,76463.33
2019-04-05T13:23:47.489Z,76404.43
2019-04-05T13:29:19.613Z,76356.52
2019-04-05T13:34:25.800Z,76391.45
2019-04-05T13:39:47.607Z,76317.58
2019-04-05T13:45:08.515Z,76375.48
2019-04-05T13:50:31.763Z,76507.26
2019-04-05T13:55:47.479Z,76444.36
2019-04-05T14:01:14.136Z,76360.50
2019-04-05T14:07:34.117Z,76156.86
2019-04-05T14:11:48.388Z,76107.94
2019-04-05T14:17:08.739Z,75981.17
2019-04-05T14:22:26.456Z,76043.06
2019-04-05T14:27:49.103Z,75983.16
2019-04-05T14:39:07.335Z,75729.63
2019-04-05T14:44:40.732Z,75454.15
2019-04-05T14:49:49.467Z,75490.08
2019-04-05T14:55:02.074Z,75611.84
2019-04-05T15:00:34.866Z,75926.27
2019-04-05T15:05:49.899Z,76035.07
2019-04-05T15:11:19.115Z,76084.98
2019-04-05T15:16:49.146Z,76153.86
2019-04-05T15:22:29.464Z,76248.70
2019-04-05T15:27:47.146Z,76329.56
2019-04-05T15:33:04.354Z,76386.46
2019-04-05T15:38:20.209Z,76316.58
2019-04-05T15:43:34.072Z,76312.59
2019-04-05T15:49:21.588Z,76191.80
2019-04-05T15:54:47.065Z,76276.65
2019-04-05T16:00:10.950Z,76353.52
2019-04-05T16:05:28.502Z,76345.53
2019-04-05T16:10:49.062Z,76358.51
2019-04-05T16:16:31.188Z,76343.53
2019-04-05T16:21:45.471Z,76321.57
2019-04-05T16:27:05.887Z,76438.38
2019-04-05T16:32:23.462Z,76475.31
2019-04-05T16:43:19.376Z,76512.25
2019-04-05T16:48:48.714Z,76594.11
2019-04-05T16:54:20.915Z,76580.14
2019-04-05T16:59:37.316Z,76583.13
2019-04-05T17:05:00.794Z,76598.11
2019-04-05T17:10:15.185Z,76601.10
2019-04-05T17:15:31.373Z,76602.10
2019-04-05T17:20:48.793Z,76629.06
2019-04-05T17:26:14.140Z,76634.05
2019-04-05T17:31:32.842Z,76604.09
2019-04-05T17:36:57.955Z,76632.05
2019-04-05T17:47:56.481Z,76638.05
2019-04-05T17:53:22.934Z,76640.04
2019-04-05T17:58:57.055Z,76652.02
2019-04-05T18:04:21.051Z,76661.00
2019-04-05T18:10:02.576Z,76661.00
2019-04-05T18:15:52.437Z,76664.00
2019-04-05T18:21:09.200Z,76668.99
2019-04-05T18:26:33.073Z,76648.02
2019-04-05T18:32:13.526Z,76636.05
2019-04-05T18:37:35.113Z,76651.02
2019-04-05T18:43:03.161Z,76706.93
2019-04-05T18:48:38.238Z,76735.88
2019-04-05T18:54:10.122Z,76754.85
2019-04-05T18:59:23.575Z,76774.82
2019-04-05T19:05:08.694Z,76782.81
2019-04-05T19:16:06.770Z,76785.80
2019-04-05T19:21:24.913Z,76811.77
2019-04-05T19:26:52.152Z,76817.75
2019-04-05T19:53:35.514Z,76845.70
2019-04-05T19:59:14.531Z,76829.73
2019-04-05T20:04:34.201Z,76845.70
2019-04-05T20:09:52.116Z,76853.70
2019-04-05T20:15:08.904Z,76862.68
2019-04-05T20:20:28.356Z,76831.73
2019-04-05T20:25:59.614Z,76844.70
2019-04-05T20:31:18.653Z,76810.77
2019-04-05T20:36:55.628Z,76839.72
2019-04-05T20:42:26.881Z,76872.66
2019-04-05T20:47:26.365Z,76855.69
2019-04-05T20:52:45.963Z,76845.70
2019-04-05T20:58:02.775Z,76871.67
2019-04-05T21:03:13.664Z,76854.69
2019-04-05T21:08:38.883Z,76840.72
2019-04-05T21:13:52.322Z,76840.72
2019-04-05T21:19:13.511Z,76863.68
2019-04-05T21:24:37.890Z,76843.71
2019-04-05T21:29:51.629Z,76858.69
2019-04-05T21:35:24.379Z,76905.61
2019-04-05T21:40:39.857Z,76901.63
2019-04-05T21:46:00.020Z,76908.61
2019-04-05T21:51:15.970Z,76895.63
2019-04-05T21:56:51.153Z,76887.64
2019-04-05T22:02:00.685Z,76917.59
2019-04-05T22:07:20.615Z,76900.63
2019-04-05T22:12:52.124Z,76891.64
2019-04-05T22:18:16.523Z,76923.59
2019-04-05T22:23:37.803Z,76903.62
2019-04-05T22:28:57.360Z,76931.58
2019-04-05T22:34:41.098Z,76936.56
2019-04-05T22:39:59.270Z,76908.61
2019-04-05T22:45:19.262Z,76899.63
2019-04-05T22:50:34.260Z,76901.63
2019-04-05T22:55:52.171Z,76906.61
2019-04-05T23:01:12.740Z,76931.58
2019-04-05T23:17:12.524Z,76891.64
2019-04-05T23:22:36.239Z,76877.66
2019-04-05T23:28:20.484Z,76882.65
2019-04-05T23:33:16.636Z,76894.63
2019-04-05T23:38:32.969Z,76883.65
2019-04-05T23:43:56.686Z,76893.63
2019-04-05T23:49:14.947Z,76887.64
2019-04-05T23:54:37.986Z,76906.61
2019-04-05T23:59:59.703Z,76894.63
